Time;durP1;ratioP1;P1;durP2;ratioP2;P2;SDS_P1;SDS_P2;PMS_P1;PMS_P2;Temp;Humidity;BMP_temperature;BMP_pressure;BME280_temperature;BME280_humidity;BME280_pressure;Samples;Min_cycle;Max_cycle;Signal;HPM_P1;HPM_P2
2022/09/09 00:00:15;;;;;;;6.88;3.83;;;16.80;99.90;;;;;;4993690;28;20639;-76
2022/09/09 00:02:46;;;;;;;7.85;4.03;;;16.80;99.90;;;;;;4992795;28;20208;-78
2022/09/09 00:05:22;;;;;;;5.75;3.80;;;16.80;99.90;;;;;;4993143;28;20212;-77
2022/09/09 00:07:55;;;;;;;6.03;3.92;;;16.80;99.90;;;;;;4993708;28;20283;-79
2022/09/09 00:10:28;;;;;;;5.10;3.95;;;16.70;99.90;;;;;;4992878;28;20204;-78
2022/09/09 00:13:02;;;;;;;6.90;4.43;;;16.70;99.90;;;;;;4993080;28;20566;-79
2022/09/09 00:15:37;;;;;;;7.50;3.97;;;16.70;99.90;;;;;;4993460;28;20286;-78
2022/09/09 00:18:14;;;;;;;5.70;4.38;;;16.70;99.90;;;;;;4992680;28;20219;-78
2022/09/09 00:20:50;;;;;;;7.05;4.45;;;16.60;99.90;;;;;;4993124;28;20512;-77
2022/09/09 00:23:25;;;;;;;7.03;4.22;;;16.60;99.90;;;;;;4993118;28;20223;-79
2022/09/09 00:26:01;;;;;;;5.28;4.55;;;16.60;99.90;;;;;;4993113;28;20203;-78
2022/09/09 00:28:32;;;;;;;7.55;5.00;;;16.60;99.90;;;;;;4993311;28;20214;-79
2022/09/09 00:31:03;;;;;;;6.63;4.80;;;16.60;99.90;;;;;;4992158;28;20335;-78
2022/09/09 00:33:32;;;;;;;5.55;4.18;;;16.60;99.90;;;;;;4993362;28;20200;-79
2022/09/09 00:36:00;;;;;;;8.18;4.60;;;16.50;99.90;;;;;;4993007;28;20199;-80
2022/09/09 00:38:34;;;;;;;7.72;4.32;;;16.50;99.90;;;;;;4992587;28;20211;-79
2022/09/09 00:41:08;;;;;;;7.85;4.45;;;16.50;99.90;;;;;;4991309;28;20749;-79
2022/09/09 00:43:38;;;;;;;7.57;5.00;;;16.50;99.90;;;;;;4993000;28;20189;-79
2022/09/09 00:46:43;;;;;;;6.30;4.88;;;16.40;99.90;;;;;;4992171;28;20208;-79
2022/09/09 00:49:18;;;;;;;8.13;5.82;;;16.50;99.90;;;;;;4993025;28;20295;-79
2022/09/09 00:51:57;;;;;;;9.32;6.10;;;16.40;99.90;;;;;;4992227;28;20194;-79
2022/09/09 00:54:38;;;;;;;7.88;5.95;;;16.40;99.90;;;;;;4993016;28;20533;-79
2022/09/09 00:57:16;;;;;;;10.00;5.40;;;16.40;99.90;;;;;;4992658;28;20513;-78
2022/09/09 00:59:48;;;;;;;6.28;5.65;;;16.40;99.90;;;;;;4992070;28;20619;-79
2022/09/09 01:02:23;;;;;;;7.65;5.47;;;16.40;99.90;;;;;;4992559;28;20188;-79
2022/09/09 01:04:50;;;;;;;7.93;6.28;;;16.30;99.90;;;;;;4992868;28;20274;-80
2022/09/09 01:07:18;;;;;;;8.13;6.03;;;16.30;99.90;;;;;;4991598;28;20593;-79
2022/09/09 01:09:57;;;;;;;9.90;6.80;;;16.30;99.90;;;;;;4992335;28;20602;-79
2022/09/09 01:12:35;;;;;;;10.23;6.50;;;16.30;99.90;;;;;;4992365;28;20194;-79
2022/09/09 01:15:11;;;;;;;9.82;7.20;;;16.30;99.90;;;;;;4992327;28;20204;-80
2022/09/09 01:17:51;;;;;;;10.40;7.32;;;16.20;99.90;;;;;;4992288;28;20215;-79
2022/09/09 01:20:23;;;;;;;9.00;6.28;;;16.20;99.90;;;;;;4992047;28;20188;-79
2022/09/09 01:23:05;;;;;;;7.40;6.72;;;16.20;99.90;;;;;;4992238;28;20615;-79
2022/09/09 01:26:18;;;;;;;8.73;6.30;;;16.20;99.90;;;;;;4992762;28;20229;-79
2022/09/09 01:28:48;;;;;;;8.10;7.30;;;16.20;99.90;;;;;;4967977;28;20247;-79
2022/09/09 01:31:19;;;;;;;13.73;8.23;;;16.20;99.90;;;;;;4991974;28;20250;-78
2022/09/09 01:33:46;;;;;;;11.07;8.30;;;16.10;99.90;;;;;;4992039;28;20202;-79
2022/09/09 01:36:19;;;;;;;10.85;7.70;;;16.10;99.90;;;;;;4992060;28;20562;-79
2022/09/09 01:38:46;;;;;;;8.27;7.32;;;16.10;99.90;;;;;;4992536;28;20192;-78
2022/09/09 01:41:12;;;;;;;10.10;7.30;;;16.10;99.90;;;;;;4991846;28;20204;-78
2022/09/09 01:43:39;;;;;;;13.50;8.77;;;16.10;99.90;;;;;;4991891;28;20200;-78
2022/09/09 01:46:08;;;;;;;9.75;6.93;;;16.10;99.90;;;;;;4991995;28;20204;-79
2022/09/09 01:48:35;;;;;;;10.17;8.03;;;16.00;99.90;;;;;;4991333;28;20223;-78
2022/09/09 01:51:02;;;;;;;11.17;8.30;;;16.00;99.90;;;;;;4993462;28;20196;-78
2022/09/09 01:53:29;;;;;;;11.13;8.60;;;16.00;99.90;;;;;;4996180;28;20290;-79
2022/09/09 01:56:05;;;;;;;11.60;9.40;;;16.00;99.90;;;;;;4995284;28;20200;-78
2022/09/09 01:58:44;;;;;;;13.57;9.63;;;16.00;99.90;;;;;;4995950;28;20188;-79
2022/09/09 02:01:18;;;;;;;12.90;10.30;;;15.90;99.90;;;;;;4996063;28;20209;-80
2022/09/09 02:03:52;;;;;;;13.03;10.33;;;15.90;99.90;;;;;;4995758;28;20196;-79
2022/09/09 02:06:28;;;;;;;15.55;11.45;;;15.90;99.90;;;;;;4995853;28;20192;-77
2022/09/09 02:08:57;;;;;;;13.43;10.95;;;15.90;99.90;;;;;;4995443;28;20226;-78
2022/09/09 02:11:25;;;;;;;15.23;10.90;;;15.80;99.90;;;;;;4997830;28;20196;-77
2022/09/09 02:13:56;;;;;;;14.93;10.73;;;15.80;99.90;;;;;;4997827;28;20204;-78
2022/09/09 02:16:29;;;;;;;14.10;11.80;;;15.80;99.90;;;;;;4996885;28;20195;-78
2022/09/09 02:19:01;;;;;;;14.45;11.80;;;15.80;99.90;;;;;;4997780;28;20219;-77
2022/09/09 02:21:31;;;;;;;18.20;13.27;;;15.80;99.90;;;;;;4996435;28;20204;-78
2022/09/09 02:24:04;;;;;;;17.15;13.25;;;15.80;99.90;;;;;;4995843;28;20204;-77
2022/09/09 02:26:34;;;;;;;19.27;14.15;;;15.70;99.90;;;;;;4995424;28;20749;-77
2022/09/09 02:29:05;;;;;;;18.60;14.20;;;15.70;99.90;;;;;;4995218;28;20655;-77
2022/09/09 02:31:36;;;;;;;18.65;14.80;;;15.70;99.90;;;;;;4994765;28;20318;-79
2022/09/09 02:34:06;;;;;;;18.40;14.13;;;15.70;99.90;;;;;;4996011;28;20235;-78
2022/09/09 02:36:35;;;;;;;15.70;13.37;;;15.70;99.90;;;;;;4995530;28;20215;-80
2022/09/09 02:39:06;;;;;;;18.70;15.50;;;15.70;99.90;;;;;;4995301;28;20278;-78
2022/09/09 02:41:35;;;;;;;17.90;14.57;;;15.70;99.90;;;;;;4995244;28;20311;-79
2022/09/09 02:44:06;;;;;;;19.53;14.07;;;15.70;99.90;;;;;;4994683;28;20204;-78
2022/09/09 02:46:57;;;;;;;16.92;13.85;;;15.70;99.90;;;;;;5008102;28;20218;-78
2022/09/09 02:49:30;;;;;;;16.80;13.52;;;15.60;99.90;;;;;;5007828;28;20223;-78
2022/09/09 02:52:03;;;;;;;22.83;15.67;;;15.60;99.90;;;;;;4995722;28;20215;-77
2022/09/09 02:54:31;;;;;;;19.83;15.77;;;15.60;99.90;;;;;;4994992;28;20211;-78
2022/09/09 02:57:04;;;;;;;17.10;15.23;;;15.60;99.90;;;;;;4994807;28;20216;-77
2022/09/09 02:59:32;;;;;;;20.17;16.27;;;15.50;99.90;;;;;;4994684;28;20193;-78
2022/09/09 03:02:00;;;;;;;19.85;16.25;;;15.50;99.90;;;;;;4994489;28;20198;-77
2022/09/09 03:04:27;;;;;;;23.53;16.80;;;15.50;99.90;;;;;;4995310;28;20215;-78
2022/09/09 03:06:55;;;;;;;21.00;17.97;;;15.40;99.90;;;;;;5003464;28;20225;-77
2022/09/09 03:09:22;;;;;;;21.87;17.57;;;15.40;99.90;;;;;;5007749;28;20215;-76
2022/09/09 03:11:49;;;;;;;26.63;19.47;;;15.50;99.90;;;;;;4996083;28;20208;-77
2022/09/09 03:14:16;;;;;;;19.63;17.23;;;15.40;99.90;;;;;;4999665;28;20261;-78
2022/09/09 03:16:43;;;;;;;20.73;17.00;;;15.40;99.90;;;;;;5009166;28;20204;-78
2022/09/09 03:19:11;;;;;;;23.17;17.90;;;15.40;99.90;;;;;;5011131;28;20257;-77
2022/09/09 03:21:38;;;;;;;20.88;18.48;;;15.40;99.90;;;;;;5014590;28;20294;-78
2022/09/09 03:24:06;;;;;;;23.47;18.10;;;15.40;99.90;;;;;;5013996;28;20906;-77
2022/09/09 03:26:33;;;;;;;24.33;18.88;;;15.50;99.90;;;;;;5011055;28;20198;-77
2022/09/09 03:29:00;;;;;;;21.07;16.30;;;15.40;99.90;;;;;;4994504;28;20282;-78
2022/09/09 03:31:29;;;;;;;21.63;17.30;;;15.40;99.90;;;;;;4994192;28;20228;-77
2022/09/09 03:33:57;;;;;;;22.27;18.13;;;15.40;99.90;;;;;;4993986;28;20202;-79
2022/09/09 03:36:27;;;;;;;19.03;17.03;;;15.40;99.90;;;;;;4993951;28;20311;-78
2022/09/09 03:38:55;;;;;;;23.57;17.97;;;15.40;99.90;;;;;;4994147;28;20220;-78
2022/09/09 03:41:23;;;;;;;19.93;17.30;;;15.30;99.90;;;;;;4993591;28;20200;-78
2022/09/09 03:43:50;;;;;;;17.80;15.77;;;15.30;99.90;;;;;;4994167;28;20215;-78
2022/09/09 03:46:17;;;;;;;20.50;15.87;;;15.30;99.90;;;;;;4994113;28;20276;-78
2022/09/09 03:48:44;;;;;;;19.40;15.17;;;15.30;99.90;;;;;;4993360;28;20544;-78
2022/09/09 03:51:11;;;;;;;17.40;14.67;;;15.30;99.90;;;;;;4994064;28;20298;-78
2022/09/09 03:53:40;;;;;;;17.83;14.70;;;15.30;99.90;;;;;;4994141;28;20204;-78
2022/09/09 03:56:08;;;;;;;17.35;14.43;;;15.30;99.90;;;;;;4993258;28;20658;-78
2022/09/09 03:58:36;;;;;;;17.10;13.70;;;15.30;99.90;;;;;;4993574;28;20619;-79
2022/09/09 04:01:05;;;;;;;14.47;12.93;;;15.20;99.90;;;;;;4993487;28;20199;-77
2022/09/09 04:03:32;;;;;;;15.70;13.10;;;15.20;99.90;;;;;;4993752;28;20195;-78
2022/09/09 04:06:01;;;;;;;14.18;12.65;;;15.20;99.90;;;;;;4993862;28;20606;-78
2022/09/09 04:08:31;;;;;;;13.93;12.48;;;15.10;99.90;;;;;;4993290;28;20282;-79
2022/09/09 04:11:00;;;;;;;15.07;13.07;;;15.10;99.90;;;;;;4993718;28;20228;-78
2022/09/09 04:13:27;;;;;;;15.83;12.73;;;15.10;99.90;;;;;;4993270;28;20589;-79
2022/09/09 04:15:55;;;;;;;14.10;11.73;;;15.10;99.90;;;;;;4992573;28;20829;-78
2022/09/09 04:18:23;;;;;;;14.20;11.30;;;15.10;99.90;;;;;;4993470;28;20208;-78
2022/09/09 04:20:51;;;;;;;18.23;12.83;;;15.10;99.90;;;;;;4993770;28;20303;-79
2022/09/09 04:23:20;;;;;;;15.33;12.73;;;15.10;99.90;;;;;;4992356;28;20284;-79
2022/09/09 04:25:48;;;;;;;18.27;13.77;;;15.10;99.90;;;;;;4993183;28;20204;-79
2022/09/09 04:28:17;;;;;;;15.77;11.97;;;15.10;99.90;;;;;;4993189;28;20208;-79
2022/09/09 04:30:45;;;;;;;20.00;12.93;;;15.10;99.90;;;;;;4992258;28;20231;-79
2022/09/09 04:33:13;;;;;;;15.57;11.90;;;15.00;99.90;;;;;;4992941;28;20688;-80
2022/09/09 04:35:40;;;;;;;14.80;11.93;;;15.00;99.90;;;;;;4993043;28;20218;-79
2022/09/09 04:38:09;;;;;;;13.80;11.93;;;15.00;99.90;;;;;;4992399;28;20200;-80
2022/09/09 04:40:36;;;;;;;16.27;11.47;;;15.00;99.90;;;;;;4992949;28;20506;-79
2022/09/09 04:43:04;;;;;;;16.63;12.83;;;15.00;99.90;;;;;;4992662;28;20243;-79
2022/09/09 04:45:33;;;;;;;14.53;12.90;;;15.00;99.90;;;;;;4992036;28;20246;-78
2022/09/09 04:48:00;;;;;;;17.37;12.73;;;15.00;99.90;;;;;;4992656;28;20383;-79
2022/09/09 04:50:28;;;;;;;14.90;13.30;;;15.00;99.90;;;;;;4992420;28;20224;-79
2022/09/09 04:52:55;;;;;;;19.83;13.23;;;15.00;99.90;;;;;;4992890;28;20319;-78
2022/09/09 04:55:22;;;;;;;15.60;12.43;;;14.90;99.90;;;;;;4992620;28;20200;-79
2022/09/09 04:57:49;;;;;;;18.47;12.50;;;14.90;99.90;;;;;;4991985;28;20239;-80
2022/09/09 05:00:16;;;;;;;15.97;12.63;;;14.90;99.90;;;;;;4992984;28;20196;-79
2022/09/09 05:02:45;;;;;;;14.00;12.20;;;14.90;99.90;;;;;;4992523;28;20288;-81
2022/09/09 05:05:12;;;;;;;13.73;11.87;;;14.80;99.90;;;;;;4991990;28;20485;-80
2022/09/09 05:07:38;;;;;;;18.43;12.23;;;14.80;99.90;;;;;;4992748;28;20565;-78
2022/09/09 05:10:06;;;;;;;16.87;11.40;;;14.80;99.90;;;;;;4992297;28;20858;-77
2022/09/09 05:12:33;;;;;;;13.67;12.20;;;14.80;99.90;;;;;;5007551;28;20207;-77
2022/09/09 05:14:59;;;;;;;17.97;11.77;;;14.90;99.90;;;;;;5011208;28;20199;-77
2022/09/09 05:17:27;;;;;;;12.70;10.10;;;14.80;99.90;;;;;;5012176;28;20522;-77
2022/09/09 05:19:55;;;;;;;14.20;10.60;;;14.80;99.90;;;;;;5011588;28;20634;-78
2022/09/09 05:22:23;;;;;;;12.33;10.20;;;14.80;99.90;;;;;;5008125;28;20292;-77
2022/09/09 05:24:50;;;;;;;11.73;9.07;;;14.80;99.90;;;;;;4992350;28;20303;-78
2022/09/09 05:27:19;;;;;;;13.57;9.30;;;14.80;99.90;;;;;;4990931;28;20208;-77
2022/09/09 05:29:46;;;;;;;12.43;9.00;;;14.80;99.90;;;;;;5011603;28;20235;-77
2022/09/09 05:32:14;;;;;;;13.57;8.83;;;14.80;99.90;;;;;;5004966;28;20557;-77
2022/09/09 05:34:41;;;;;;;11.73;8.53;;;14.80;99.90;;;;;;4991680;28;20196;-78
2022/09/09 05:37:10;;;;;;;15.60;8.70;;;14.80;99.90;;;;;;4992266;28;20288;-78
2022/09/09 05:39:37;;;;;;;13.53;7.93;;;14.80;99.90;;;;;;4990951;28;20592;-77
2022/09/09 05:42:05;;;;;;;12.23;8.40;;;14.80;99.90;;;;;;4992310;28;20199;-78
2022/09/09 05:44:32;;;;;;;10.63;7.43;;;14.80;99.90;;;;;;4991854;28;20208;-77
2022/09/09 05:46:59;;;;;;;10.30;7.63;;;14.80;99.90;;;;;;4991713;28;20334;-78
2022/09/09 05:49:26;;;;;;;9.27;7.23;;;14.80;99.90;;;;;;5006458;28;20204;-79
2022/09/09 05:51:53;;;;;;;11.33;7.43;;;14.90;99.90;;;;;;5011918;28;20195;-78
2022/09/09 05:54:21;;;;;;;9.57;7.20;;;14.80;99.90;;;;;;4993815;28;20481;-79
2022/09/09 05:56:49;;;;;;;10.80;7.70;;;14.90;99.90;;;;;;4992405;28;20235;-77
2022/09/09 05:59:16;;;;;;;11.50;7.73;;;14.90;99.90;;;;;;4992087;28;20258;-78
2022/09/09 06:01:44;;;;;;;10.77;6.67;;;14.90;99.90;;;;;;4991196;28;20192;-77
2022/09/09 06:04:10;;;;;;;10.03;6.87;;;14.90;99.90;;;;;;4991645;28;20224;-78
2022/09/09 06:06:39;;;;;;;10.10;6.43;;;14.90;99.90;;;;;;4991782;28;20296;-77
2022/09/09 06:09:09;;;;;;;8.68;6.43;;;14.90;99.90;;;;;;4991296;28;20512;-76
2022/09/09 06:11:38;;;;;;;11.10;7.00;;;14.90;99.90;;;;;;4991887;28;20216;-77
2022/09/09 06:14:06;;;;;;;12.10;6.50;;;15.00;99.90;;;;;;4991756;28;20204;-78
2022/09/09 06:16:33;;;;;;;10.17;6.17;;;15.00;99.90;;;;;;4990756;28;20208;-79
2022/09/09 06:19:03;;;;;;;11.33;5.80;;;15.10;99.90;;;;;;4991814;28;20585;-78
2022/09/09 06:21:32;;;;;;;7.50;5.60;;;15.10;99.90;;;;;;4991623;28;20275;-78
2022/09/09 06:23:59;;;;;;;12.97;6.30;;;15.20;99.90;;;;;;4991276;28;20204;-78
2022/09/09 06:26:28;;;;;;;12.43;6.23;;;15.30;99.90;;;;;;4992077;28;20208;-77
2022/09/09 06:28:57;;;;;;;8.85;5.90;;;15.30;99.90;;;;;;5013596;28;20207;-78
2022/09/09 06:31:26;;;;;;;9.33;5.53;;;15.40;99.90;;;;;;5024515;28;20340;-78
2022/09/09 06:33:54;;;;;;;11.63;5.83;;;15.40;99.90;;;;;;5015277;28;20505;-79
2022/09/09 06:36:23;;;;;;;10.25;5.45;;;15.40;99.90;;;;;;5011484;28;20199;-78
2022/09/09 06:38:51;;;;;;;10.18;5.78;;;15.50;99.90;;;;;;5025624;28;20195;-78
2022/09/09 06:41:19;;;;;;;9.57;5.32;;;15.50;99.90;;;;;;5020676;28;20654;-79
2022/09/09 06:43:47;;;;;;;11.07;5.23;;;15.50;99.90;;;;;;5013338;28;20217;-78
2022/09/09 06:46:18;;;;;;;12.27;5.60;;;15.60;99.90;;;;;;5014896;28;20209;-81
2022/09/09 06:48:45;;;;;;;11.10;5.17;;;15.70;99.90;;;;;;5015244;28;20199;-81
2022/09/09 06:51:14;;;;;;;9.70;4.67;;;15.80;99.90;;;;;;4997431;28;20230;-80
2022/09/09 06:53:43;;;;;;;11.13;4.90;;;15.90;99.90;;;;;;4994354;28;20592;-77
2022/09/09 06:56:21;;;;;;;11.37;4.50;;;15.90;99.90;;;;;;4995010;28;20200;-78
2022/09/09 06:58:48;;;;;;;7.43;5.13;;;16.00;99.90;;;;;;4994597;28;20188;-77
2022/09/09 07:01:19;;;;;;;13.75;5.40;;;16.00;99.90;;;;;;4994764;28;20199;-79
2022/09/09 07:03:48;;;;;;;8.00;4.80;;;16.00;99.90;;;;;;4995353;28;20199;-79
2022/09/09 07:06:17;;;;;;;8.13;4.97;;;16.00;99.90;;;;;;4994955;28;20220;-80
2022/09/09 07:08:44;;;;;;;9.90;4.65;;;16.00;99.90;;;;;;4995157;28;20200;-80
2022/09/09 07:11:11;;;;;;;15.43;5.50;;;16.10;99.90;;;;;;4994301;28;20216;-80
2022/09/09 07:13:38;;;;;;;13.80;5.57;;;16.10;99.90;;;;;;4995177;28;20204;-81
2022/09/09 07:16:06;;;;;;;13.98;6.68;;;16.20;99.90;;;;;;4994520;28;20660;-79
2022/09/09 07:18:35;;;;;;;11.70;6.43;;;16.20;99.90;;;;;;4993988;28;20205;-80
2022/09/09 07:21:03;;;;;;;12.95;6.45;;;16.20;99.90;;;;;;4994947;28;20251;-78
2022/09/09 07:23:31;;;;;;;10.80;6.22;;;16.30;99.90;;;;;;4994577;28;20214;-77
2022/09/09 07:25:58;;;;;;;9.00;5.47;;;16.30;99.90;;;;;;4994257;28;20206;-78
2022/09/09 07:28:25;;;;;;;11.10;5.75;;;16.40;99.90;;;;;;4994475;28;20253;-80
2022/09/09 07:30:56;;;;;;;12.15;5.60;;;16.40;99.90;;;;;;4994281;28;20232;-78
2022/09/09 07:33:23;;;;;;;11.75;6.03;;;16.50;99.90;;;;;;4993933;28;20552;-80
2022/09/09 07:35:52;;;;;;;8.63;5.78;;;16.50;99.90;;;;;;4994115;28;20551;-77
2022/09/09 07:38:19;;;;;;;8.98;5.43;;;16.50;99.90;;;;;;4994114;28;20288;-80
2022/09/09 07:40:46;;;;;;;8.02;4.85;;;16.60;99.90;;;;;;4993662;28;20211;-79
2022/09/09 07:43:13;;;;;;;7.55;5.55;;;16.60;99.90;;;;;;4994151;28;20262;-78
2022/09/09 07:45:41;;;;;;;9.57;5.82;;;16.70;99.90;;;;;;4994205;28;20207;-79
2022/09/09 07:48:10;;;;;;;11.20;5.40;;;16.80;99.90;;;;;;4993169;28;20659;-78
2022/09/09 07:50:36;;;;;;;9.10;5.90;;;17.00;99.90;;;;;;4993814;28;20849;-79
2022/09/09 07:53:06;;;;;;;11.30;6.10;;;17.10;99.90;;;;;;4994153;28;20210;-79
2022/09/09 07:55:33;;;;;;;15.50;6.03;;;17.20;99.90;;;;;;4993828;28;20611;-80
2022/09/09 07:57:59;;;;;;;12.95;5.50;;;17.20;99.90;;;;;;4994109;28;20298;-80
2022/09/09 08:00:27;;;;;;;10.98;5.63;;;17.20;99.90;;;;;;4993031;28;20218;-80
2022/09/09 08:02:54;;;;;;;20.88;7.13;;;17.20;99.90;;;;;;5000881;28;20266;-79
2022/09/09 08:05:22;;;;;;;15.30;6.35;;;17.30;99.90;;;;;;5013701;28;20207;-77
2022/09/09 08:07:49;;;;;;;8.65;6.45;;;17.40;99.90;;;;;;5004708;28;20208;-78
2022/09/09 08:10:17;;;;;;;7.88;5.43;;;17.30;99.90;;;;;;4993960;28;20220;-80
2022/09/09 08:12:44;;;;;;;10.13;5.50;;;17.40;99.90;;;;;;4994020;28;20218;-81
2022/09/09 08:15:12;;;;;;;8.27;4.65;;;17.40;99.90;;;;;;4993111;28;20274;-80
2022/09/09 08:17:39;;;;;;;13.93;6.53;;;17.40;99.90;;;;;;4993320;28;20196;-79
2022/09/09 08:20:06;;;;;;;7.75;4.50;;;17.50;99.90;;;;;;4993762;28;20291;-79
2022/09/09 08:22:34;;;;;;;8.45;5.05;;;17.50;99.90;;;;;;4993333;28;20211;-77
2022/09/09 08:25:02;;;;;;;10.18;5.38;;;17.50;99.90;;;;;;4994049;28;20204;-78
2022/09/09 08:27:32;;;;;;;11.57;5.13;;;17.70;99.90;;;;;;4993644;28;20231;-79
2022/09/09 08:29:58;;;;;;;6.85;4.00;;;17.90;99.90;;;;;;4993141;28;20291;-80
2022/09/09 08:32:26;;;;;;;8.93;4.85;;;18.10;99.90;;;;;;4993293;28;20223;-81
2022/09/09 08:34:52;;;;;;;10.20;4.63;;;18.20;99.90;;;;;;4993243;28;20208;-80
2022/09/09 08:37:20;;;;;;;10.15;4.45;;;18.10;99.90;;;;;;4992475;28;20198;-78
2022/09/09 08:39:48;;;;;;;10.98;4.85;;;18.10;99.90;;;;;;4993335;28;20267;-76
2022/09/09 08:42:38;;;;;;;10.48;4.80;;;18.10;99.90;;;;;;4993646;28;20215;-77
2022/09/09 08:45:34;;;;;;;12.30;5.18;;;18.10;99.90;;;;;;5010823;28;20214;-77
2022/09/09 08:48:22;;;;;;;10.45;4.57;;;17.90;99.90;;;;;;5006775;28;20218;-80
2022/09/09 08:50:51;;;;;;;6.40;4.57;;;17.90;99.90;;;;;;5024031;28;20234;-81
2022/09/09 08:53:24;;;;;;;13.23;4.60;;;17.90;99.90;;;;;;4999333;28;20257;-80
2022/09/09 08:55:55;;;;;;;11.40;4.57;;;17.90;99.90;;;;;;5016556;28;20677;-81
2022/09/09 08:58:28;;;;;;;7.43;4.65;;;17.90;99.90;;;;;;5011482;28;20269;-81
2022/09/09 09:01:18;;;;;;;10.30;4.43;;;17.90;99.90;;;;;;5011428;28;20282;-80
2022/09/09 09:03:53;;;;;;;11.43;4.60;;;17.90;99.90;;;;;;4998884;28;20481;-80
2022/09/09 09:06:35;;;;;;;7.03;4.20;;;18.00;99.90;;;;;;5008956;28;20202;-79
2022/09/09 09:09:06;;;;;;;8.32;4.65;;;18.20;99.90;;;;;;5010907;28;20214;-78
2022/09/09 09:11:38;;;;;;;9.95;4.90;;;18.30;99.90;;;;;;5011634;28;20203;-82
2022/09/09 09:14:12;;;;;;;8.70;4.13;;;18.40;99.90;;;;;;5008429;28;20191;-80
2022/09/09 09:16:49;;;;;;;7.05;4.07;;;18.50;99.90;;;;;;5005032;28;20333;-78
2022/09/09 09:19:17;;;;;;;9.10;3.90;;;18.50;99.90;;;;;;5013891;28;20202;-80
2022/09/09 09:21:50;;;;;;;8.70;4.32;;;18.60;99.90;;;;;;5021215;28;20214;-80
2022/09/09 09:24:20;;;;;;;8.18;3.80;;;18.50;99.90;;;;;;5032477;28;20196;-78
2022/09/09 09:26:47;;;;;;;6.90;3.45;;;18.60;99.90;;;;;;5023337;28;20195;-79
2022/09/09 09:29:19;;;;;;;7.15;3.45;;;18.50;99.90;;;;;;5012636;28;20719;-80
2022/09/09 09:31:51;;;;;;;8.40;4.40;;;18.40;99.90;;;;;;5008240;28;20243;-81
2022/09/09 09:34:18;;;;;;;5.57;3.90;;;18.40;99.90;;;;;;5004645;28;20234;-79
2022/09/09 09:36:52;;;;;;;13.55;4.22;;;18.40;99.90;;;;;;5007909;28;20203;-81
2022/09/09 09:39:25;;;;;;;8.50;3.85;;;18.30;99.90;;;;;;5007275;28;20493;-77
2022/09/09 09:41:52;;;;;;;8.48;4.70;;;18.20;99.90;;;;;;5013129;28;20195;-81
2022/09/09 09:44:29;;;;;;;9.20;4.82;;;18.20;99.90;;;;;;5010874;28;20205;-80
2022/09/09 09:47:08;;;;;;;8.43;4.57;;;18.10;99.90;;;;;;4992654;28;20239;-80
2022/09/09 09:49:35;;;;;;;8.50;3.83;;;18.10;99.90;;;;;;4992807;28;20199;-79
2022/09/09 09:52:02;;;;;;;5.25;3.85;;;18.10;99.90;;;;;;4992471;28;20220;-81
2022/09/09 09:54:32;;;;;;;10.85;4.70;;;18.20;99.90;;;;;;4991544;28;20291;-81
2022/09/09 09:57:09;;;;;;;7.97;4.30;;;18.40;99.90;;;;;;4999305;28;20207;-81
2022/09/09 09:59:39;;;;;;;9.65;3.72;;;18.60;99.90;;;;;;5008689;28;20208;-81
2022/09/09 10:02:23;;;;;;;8.40;4.00;;;18.70;99.90;;;;;;5010916;28;20789;-81
2022/09/09 10:04:49;;;;;;;7.07;3.78;;;18.60;99.90;;;;;;4979975;28;20222;-80
2022/09/09 10:07:20;;;;;;;8.52;4.00;;;18.70;99.90;;;;;;5004768;28;20241;-80
2022/09/09 10:09:51;;;;;;;8.00;3.60;;;18.70;99.90;;;;;;4991630;28;20210;-79
2022/09/09 10:12:29;;;;;;;8.10;4.07;;;18.70;99.90;;;;;;4993282;28;20236;-82
2022/09/09 10:15:03;;;;;;;7.95;3.92;;;18.70;99.90;;;;;;5026987;28;20312;-79
2022/09/09 10:17:37;;;;;;;7.43;3.10;;;18.90;99.90;;;;;;4987970;28;20346;-79
2022/09/09 10:20:21;;;;;;;10.02;4.03;;;19.10;99.90;;;;;;4975799;28;20215;-82
2022/09/09 10:22:52;;;;;;;6.05;3.45;;;19.20;99.90;;;;;;4978461;28;20212;-80
2022/09/09 10:25:39;;;;;;;7.63;3.83;;;19.40;99.90;;;;;;5010352;28;20205;-79
2022/09/09 10:28:28;;;;;;;9.77;3.50;;;19.40;99.90;;;;;;4986069;28;20219;-80
2022/09/09 10:31:08;;;;;;;8.10;3.30;;;19.50;99.90;;;;;;4987491;28;20236;-81
2022/09/09 10:33:44;;;;;;;7.15;3.78;;;19.70;99.90;;;;;;5003674;28;20210;-80
2022/09/09 10:36:17;;;;;;;7.50;3.47;;;19.80;99.90;;;;;;4990896;28;20208;-78
2022/09/09 10:38:47;;;;;;;8.32;3.47;;;19.70;99.90;;;;;;4991692;28;20200;-81
2022/09/09 10:41:24;;;;;;;7.30;3.47;;;19.80;99.90;;;;;;4995059;28;20211;-76
2022/09/09 10:44:06;;;;;;;8.88;3.90;;;19.80;99.90;;;;;;4993557;28;20514;-79
2022/09/09 10:46:46;;;;;;;5.78;3.08;;;19.80;99.90;;;;;;4983066;28;20267;-80
2022/09/09 10:49:26;;;;;;;8.85;4.18;;;19.80;99.90;;;;;;4974604;28;20259;-81
2022/09/09 10:52:01;;;;;;;10.63;3.33;;;19.80;99.90;;;;;;4975423;28;20235;-78
2022/09/09 10:54:41;;;;;;;9.30;3.33;;;19.90;99.90;;;;;;4975021;28;20219;-79
2022/09/09 10:57:17;;;;;;;10.48;3.60;;;19.90;99.90;;;;;;4974997;28;20212;-79
2022/09/09 10:59:49;;;;;;;9.32;3.00;;;19.80;99.90;;;;;;4975029;28;20219;-79
2022/09/09 11:02:26;;;;;;;8.23;3.22;;;19.90;99.90;;;;;;4986960;28;20211;-79
2022/09/09 11:04:58;;;;;;;8.82;2.95;;;19.80;99.90;;;;;;5013318;28;20203;-81
2022/09/09 11:07:31;;;;;;;9.15;2.97;;;19.90;99.90;;;;;;5002497;28;20292;-77
2022/09/09 11:10:06;;;;;;;8.60;3.35;;;19.90;99.90;;;;;;4975987;28;20189;-80
2022/09/09 11:12:39;;;;;;;8.90;2.80;;;19.90;99.90;;;;;;4975526;28;20302;-80
2022/09/09 11:15:15;;;;;;;8.23;2.50;;;19.90;99.90;;;;;;4982498;28;20207;-78
2022/09/09 11:17:49;;;;;;;5.65;2.63;;;19.80;99.90;;;;;;4992452;28;20199;-77
2022/09/09 11:20:16;;;;;;;9.98;2.92;;;19.90;99.90;;;;;;4995648;28;20508;-77
2022/09/09 11:22:49;;;;;;;6.97;2.88;;;19.90;99.90;;;;;;4996446;28;20270;-77
2022/09/09 11:25:19;;;;;;;6.03;2.60;;;19.70;99.90;;;;;;4989728;28;20207;-75
2022/09/09 11:27:58;;;;;;;8.25;2.80;;;19.70;99.90;;;;;;4990269;28;20258;-76
2022/09/09 11:30:35;;;;;;;10.07;2.55;;;19.50;99.90;;;;;;4992867;28;20654;-75
2022/09/09 11:33:35;;;;;;;7.78;2.92;;;19.30;99.90;;;;;;4981593;28;20228;-75
2022/09/09 11:36:25;;;;;;;4.85;3.10;;;19.20;99.90;;;;;;4990941;28;20212;-78
2022/09/09 11:38:53;;;;;;;8.32;3.25;;;19.10;99.90;;;;;;4988950;28;20216;-77
2022/09/09 11:41:22;;;;;;;6.50;3.10;;;19.10;99.90;;;;;;4991433;28;20288;-76
2022/09/09 11:43:51;;;;;;;7.00;3.42;;;19.10;99.90;;;;;;4991413;28;20294;-76
2022/09/09 11:46:21;;;;;;;7.97;3.65;;;19.10;99.90;;;;;;4993043;28;20200;-76
2022/09/09 11:49:00;;;;;;;6.32;3.63;;;19.00;99.90;;;;;;4991975;28;20254;-76
2022/09/09 11:51:30;;;;;;;8.15;3.80;;;19.10;99.90;;;;;;4989310;28;20208;-77
2022/09/09 11:54:01;;;;;;;9.48;3.97;;;19.10;99.90;;;;;;4988218;28;20635;-76
2022/09/09 11:56:31;;;;;;;7.88;3.20;;;19.20;99.90;;;;;;4996323;28;20300;-78
2022/09/09 11:59:02;;;;;;;7.85;3.65;;;19.20;99.90;;;;;;4984735;28;20213;-75
2022/09/09 12:01:42;;;;;;;6.88;3.10;;;19.30;99.90;;;;;;4986359;28;20212;-75
2022/09/09 12:04:30;;;;;;;7.38;3.15;;;19.30;99.90;;;;;;4979429;28;20210;-77
2022/09/09 12:07:02;;;;;;;6.20;2.90;;;19.10;99.90;;;;;;4990531;28;20685;-75
2022/09/09 12:09:48;;;;;;;7.20;2.72;;;19.00;99.90;;;;;;4987053;28;20208;-76
2022/09/09 12:12:33;;;;;;;6.15;3.20;;;18.80;99.90;;;;;;4981039;28;20286;-75
2022/09/09 12:15:34;;;;;;;5.82;2.80;;;18.90;99.90;;;;;;4976089;28;20222;-79
2022/09/09 12:18:02;;;;;;;5.13;2.38;;;19.10;99.90;;;;;;4992833;28;20204;-79
2022/09/09 12:20:34;;;;;;;5.70;2.20;;;19.20;99.90;;;;;;4990690;28;20235;-79
2022/09/09 12:23:22;;;;;;;5.63;2.83;;;19.50;99.90;;;;;;4991076;28;20208;-74
2022/09/09 12:26:00;;;;;;;5.65;2.10;;;19.70;99.90;;;;;;4989123;28;20534;-76
2022/09/09 12:28:41;;;;;;;5.05;2.45;;;19.90;99.90;;;;;;5004729;28;20229;-80
2022/09/09 12:31:17;;;;;;;5.72;2.70;;;20.00;99.90;;;;;;4990810;28;20251;-76
2022/09/09 12:33:47;;;;;;;5.65;2.30;;;20.00;99.90;;;;;;4988679;28;20234;-77
2022/09/09 12:36:16;;;;;;;5.50;2.78;;;20.20;99.90;;;;;;4992452;28;20203;-77
2022/09/09 12:38:45;;;;;;;6.20;2.40;;;20.40;99.90;;;;;;4992339;28;20200;-76
2022/09/09 12:41:21;;;;;;;6.13;2.33;;;20.40;99.90;;;;;;4973853;28;20219;-76
2022/09/09 12:43:48;;;;;;;7.63;2.50;;;20.50;99.90;;;;;;4991947;28;20200;-77
2022/09/09 12:46:28;;;;;;;4.80;2.33;;;20.40;99.90;;;;;;4992774;28;20534;-78
2022/09/09 12:48:56;;;;;;;5.85;2.45;;;20.10;99.90;;;;;;4981439;28;20207;-78
2022/09/09 12:51:28;;;;;;;4.18;2.35;;;19.90;99.90;;;;;;4973632;28;20212;-81
2022/09/09 12:53:57;;;;;;;3.60;1.52;;;19.90;99.90;;;;;;4973887;28;20301;-78
2022/09/09 12:56:27;;;;;;;3.63;1.70;;;20.10;99.90;;;;;;4990709;28;20207;-80
2022/09/09 12:58:57;;;;;;;3.58;1.90;;;20.20;99.90;;;;;;4991366;28;20215;-80